sensor_id;sensor_type;location;lat;lon;timestamp;P1;P2;P0
82823;PMS5003;72575;46.834;-71.234;2024-03-02T00:01:41;17.61;12.78;5.06
82823;PMS5003;72575;46.834;-71.234;2024-03-02T00:04:07;12.5;11.89;4.11
82823;PMS5003;72575;46.834;-71.234;2024-03-02T00:06:30;13.37;11.32;8.37
82823;PMS5003;72575;46.834;-71.234;2024-03-02T00:08:57;10.79;10.11;5.37
82823;PMS5003;72575;46.834;-71.234;2024-03-02T00:11:23;15.9;14.45;7
82823;PMS5003;72575;46.834;-71.234;2024-03-02T00:13:48;4.83;4.17;2.72
82823;PMS5003;72575;46.834;-71.234;2024-03-02T00:16:14;10.63;8.68;5.53
82823;PMS5003;72575;46.834;-71.234;2024-03-02T00:18:39;13.56;12.44;6.94
82823;PMS5003;72575;46.834;-71.234;2024-03-02T00:21:05;15.17;12.39;5.22
82823;PMS5003;72575;46.834;-71.234;2024-03-02T00:23:30;7.22;5.61;3.83
82823;PMS5003;72575;46.834;-71.234;2024-03-02T00:25:54;8.95;8.6;4.85
82823;PMS5003;72575;46.834;-71.234;2024-03-02T00:28:19;18;16.21;7.58
82823;PMS5003;72575;46.834;-71.234;2024-03-02T00:30:51;43.6;40.85;19.3
82823;PMS5003;72575;46.834;-71.234;2024-03-02T00:33:10;18.86;18;8.73
82823;PMS5003;72575;46.834;-71.234;2024-03-02T00:35:35;19.76;17.48;11.24
82823;PMS5003;72575;46.834;-71.234;2024-03-02T00:38:03;17.3;17.15;9.35
82823;PMS5003;72575;46.834;-71.234;2024-03-02T00:40:28;20.79;20.79;9.47
82823;PMS5003;72575;46.834;-71.234;2024-03-02T00:42:52;25.05;20;11.43
82823;PMS5003;72575;46.834;-71.234;2024-03-02T00:45:18;16.71;16.57;8.62
82823;PMS5003;72575;46.834;-71.234;2024-03-02T00:47:43;12.8;12.1;8.15
82823;PMS5003;72575;46.834;-71.234;2024-03-02T00:50:11;16.63;14.53;9.79
82823;PMS5003;72575;46.834;-71.234;2024-03-02T00:52:33;18.11;14.17;7.33
82823;PMS5003;72575;46.834;-71.234;2024-03-02T00:54:59;20.11;15;8.74
82823;PMS5003;72575;46.834;-71.234;2024-03-02T00:57:26;19.19;19.19;10
82823;PMS5003;72575;46.834;-71.234;2024-03-02T00:59:49;18.76;16.24;9.14
82823;PMS5003;72575;46.834;-71.234;2024-03-02T01:02:16;17.05;16.52;11.48
82823;PMS5003;72575;46.834;-71.234;2024-03-02T01:04:40;15.06;13.33;8
82823;PMS5003;72575;46.834;-71.234;2024-03-02T01:07:06;21.59;18.73;10.45
82823;PMS5003;72575;46.834;-71.234;2024-03-02T01:09:32;19.05;17.65;7.9
82823;PMS5003;72575;46.834;-71.234;2024-03-02T01:11:59;16.81;15.9;10.62
82823;PMS5003;72575;46.834;-71.234;2024-03-02T01:14:23;21.42;19.11;10.47
82823;PMS5003;72575;46.834;-71.234;2024-03-02T01:16:49;13.83;11;6.61
82823;PMS5003;72575;46.834;-71.234;2024-03-02T01:19:15;24.25;21.45;10.15
82823;PMS5003;72575;46.834;-71.234;2024-03-02T01:21:38;30.05;26;13.58
82823;PMS5003;72575;46.834;-71.234;2024-03-02T01:24:04;22.19;18.62;12.38
82823;PMS5003;72575;46.834;-71.234;2024-03-02T01:26:31;24.2;21.2;12.65
82823;PMS5003;72575;46.834;-71.234;2024-03-02T01:28:57;17;14.28;9.17
82823;PMS5003;72575;46.834;-71.234;2024-03-02T01:31:20;16.44;15.83;7.83
82823;PMS5003;72575;46.834;-71.234;2024-03-02T01:33:46;18.63;17.16;7.58
82823;PMS5003;72575;46.834;-71.234;2024-03-02T01:36:13;20.16;14.26;7.89
82823;PMS5003;72575;46.834;-71.234;2024-03-02T01:38:36;12.37;11.21;6.32
82823;PMS5003;72575;46.834;-71.234;2024-03-02T01:41:04;34.27;28.64;16.36
82823;PMS5003;72575;46.834;-71.234;2024-03-02T01:43:27;17.37;16.32;10.37
82823;PMS5003;72575;46.834;-71.234;2024-03-02T01:45:53;23.55;21.6;11.95
82823;PMS5003;72575;46.834;-71.234;2024-03-02T01:48:19;23.42;19.05;10.11
82823;PMS5003;72575;46.834;-71.234;2024-03-02T01:50:45;27;20.83;11.22
82823;PMS5003;72575;46.834;-71.234;2024-03-02T01:53:08;43.26;36.42;15.05
82823;PMS5003;72575;46.834;-71.234;2024-03-02T01:55:35;32.37;29.58;15.26
82823;PMS5003;72575;46.834;-71.234;2024-03-02T01:58:01;27.85;25.6;11.4
82823;PMS5003;72575;46.834;-71.234;2024-03-02T02:00:27;32.89;27.63;13.37
82823;PMS5003;72575;46.834;-71.234;2024-03-02T02:02:51;23.11;21.89;14.22
82823;PMS5003;72575;46.834;-71.234;2024-03-02T02:05:18;34;26.42;14.21
82823;PMS5003;72575;46.834;-71.234;2024-03-02T02:07:43;29.95;24.74;13.11
82823;PMS5003;72575;46.834;-71.234;2024-03-02T02:10:08;34.1;31.55;15.25
82823;PMS5003;72575;46.834;-71.234;2024-03-02T02:12:35;44.05;37.52;17.67
82823;PMS5003;72575;46.834;-71.234;2024-03-02T02:14:59;65.68;49.91;30.68
82823;PMS5003;72575;46.834;-71.234;2024-03-02T02:17:24;54.53;44.79;23.89
82823;PMS5003;72575;46.834;-71.234;2024-03-02T02:19:50;65.1;51.9;30.7
82823;PMS5003;72575;46.834;-71.234;2024-03-02T02:22:16;38.33;35.29;18.38
82823;PMS5003;72575;46.834;-71.234;2024-03-02T02:24:40;41.1;30.25;17
82823;PMS5003;72575;46.834;-71.234;2024-03-02T02:27:07;29.47;25.63;11.47
82823;PMS5003;72575;46.834;-71.234;2024-03-02T02:29:31;35.85;32.85;16.9
82823;PMS5003;72575;46.834;-71.234;2024-03-02T02:31:57;38;34.24;16.33
82823;PMS5003;72575;46.834;-71.234;2024-03-02T02:34:23;21.45;18.8;12.15
82823;PMS5003;72575;46.834;-71.234;2024-03-02T02:36:49;39.81;34.62;20.43
82823;PMS5003;72575;46.834;-71.234;2024-03-02T02:39:13;38.52;34.33;20.48
82823;PMS5003;72575;46.834;-71.234;2024-03-02T02:41:40;43.55;41.15;21.5
82823;PMS5003;72575;46.834;-71.234;2024-03-02T02:44:03;32.9;29.62;17.38
82823;PMS5003;72575;46.834;-71.234;2024-03-02T02:46:29;33.43;28.14;15.29
82823;PMS5003;72575;46.834;-71.234;2024-03-02T02:48:55;28.77;26.32;18.5
82823;PMS5003;72575;46.834;-71.234;2024-03-02T02:51:22;26.43;23.62;14.71
82823;PMS5003;72575;46.834;-71.234;2024-03-02T02:53:45;28.52;25.52;14.43
82823;PMS5003;72575;46.834;-71.234;2024-03-02T02:56:13;29.71;27.95;17.19
82823;PMS5003;72575;46.834;-71.234;2024-03-02T02:58:35;31.38;29.38;17
82823;PMS5003;72575;46.834;-71.234;2024-03-02T03:01:02;35.14;26.19;17.81
82823;PMS5003;72575;46.834;-71.234;2024-03-02T03:03:29;25.05;23.71;13.67
82823;PMS5003;72575;46.834;-71.234;2024-03-02T03:05:55;27.77;25.14;16.05
82823;PMS5003;72575;46.834;-71.234;2024-03-02T03:08:18;30.48;26.57;15.67
82823;PMS5003;72575;46.834;-71.234;2024-03-02T03:10:45;36.45;33.75;16.75
82823;PMS5003;72575;46.834;-71.234;2024-03-02T03:13:08;38.89;36.47;19.16
82823;PMS5003;72575;46.834;-71.234;2024-03-02T03:15:34;46.05;41.05;21.85
82823;PMS5003;72575;46.834;-71.234;2024-03-02T03:17:59;43.7;39.8;20.45
82823;PMS5003;72575;46.834;-71.234;2024-03-02T03:20:25;41.62;34.76;19.43
82823;PMS5003;72575;46.834;-71.234;2024-03-02T03:22:52;54.9;46.19;24.38
82823;PMS5003;72575;46.834;-71.234;2024-03-02T03:25:18;40.29;36.62;20.62
82823;PMS5003;72575;46.834;-71.234;2024-03-02T03:27:44;37;31.62;19.86
82823;PMS5003;72575;46.834;-71.234;2024-03-02T03:30:08;34.95;31.62;18.43
82823;PMS5003;72575;46.834;-71.234;2024-03-02T03:32:34;46.53;39.26;19.74
82823;PMS5003;72575;46.834;-71.234;2024-03-02T03:35:00;31.86;27.67;16.33
82823;PMS5003;72575;46.834;-71.234;2024-03-02T03:37:35;38.77;33.68;19.59
82823;PMS5003;72575;46.834;-71.234;2024-03-02T03:40:01;38.57;36.24;20.67
82823;PMS5003;72575;46.834;-71.234;2024-03-02T03:42:25;45.05;35.9;17.81
82823;PMS5003;72575;46.834;-71.234;2024-03-02T03:44:52;32.45;30.65;14.95
82823;PMS5003;72575;46.834;-71.234;2024-03-02T03:47:16;29.71;25.48;13.81
82823;PMS5003;72575;46.834;-71.234;2024-03-02T03:49:42;36.42;30.84;12.74
82823;PMS5003;72575;46.834;-71.234;2024-03-02T03:52:06;21.86;18.19;11.1
82823;PMS5003;72575;46.834;-71.234;2024-03-02T03:54:35;26.9;24.85;13
82823;PMS5003;72575;46.834;-71.234;2024-03-02T03:57:00;33.74;28.74;13.58
82823;PMS5003;72575;46.834;-71.234;2024-03-02T03:59:26;28.05;26.33;12.19
82823;PMS5003;72575;46.834;-71.234;2024-03-02T04:01:50;28;26.4;13.65
82823;PMS5003;72575;46.834;-71.234;2024-03-02T04:04:16;28.62;25.14;13.81
82823;PMS5003;72575;46.834;-71.234;2024-03-02T04:06:40;28.05;26.05;11.55
82823;PMS5003;72575;46.834;-71.234;2024-03-02T04:09:05;21.76;20.95;11.48
82823;PMS5003;72575;46.834;-71.234;2024-03-02T04:11:33;23;20.18;10.55
82823;PMS5003;72575;46.834;-71.234;2024-03-02T04:13:57;20.19;17.43;10.33
82823;PMS5003;72575;46.834;-71.234;2024-03-02T04:16:23;31.3;27.35;12.25
82823;PMS5003;72575;46.834;-71.234;2024-03-02T04:18:49;30.48;25.33;13.86
82823;PMS5003;72575;46.834;-71.234;2024-03-02T04:21:15;27.81;23.57;13.95
82823;PMS5003;72575;46.834;-71.234;2024-03-02T04:23:38;41.76;36.19;20.48
82823;PMS5003;72575;46.834;-71.234;2024-03-02T04:26:04;60;50.44;26.33
82823;PMS5003;72575;46.834;-71.234;2024-03-02T04:28:30;56.79;49.21;25.42
82823;PMS5003;72575;46.834;-71.234;2024-03-02T04:30:57;47.67;44.43;24.52
82823;PMS5003;72575;46.834;-71.234;2024-03-02T04:33:21;50.1;44.33;25.86
82823;PMS5003;72575;46.834;-71.234;2024-03-02T04:35:47;44.48;39.52;23.9
82823;PMS5003;72575;46.834;-71.234;2024-03-02T04:38:11;54.42;45.21;25.84
82823;PMS5003;72575;46.834;-71.234;2024-03-02T04:40:38;46.75;41.45;22.2
82823;PMS5003;72575;46.834;-71.234;2024-03-02T04:43:04;46.25;40.85;25.75
82823;PMS5003;72575;46.834;-71.234;2024-03-02T04:45:28;54.81;44.1;24.43
82823;PMS5003;72575;46.834;-71.234;2024-03-02T04:47:53;45.05;42.95;23.35
82823;PMS5003;72575;46.834;-71.234;2024-03-02T04:50:18;51.9;43.9;25.38
82823;PMS5003;72575;46.834;-71.234;2024-03-02T04:52:44;54.62;47.38;28.33
82823;PMS5003;72575;46.834;-71.234;2024-03-02T04:55:11;55.37;46.05;25.32
82823;PMS5003;72575;46.834;-71.234;2024-03-02T04:57:34;51.4;45.25;24.4
82823;PMS5003;72575;46.834;-71.234;2024-03-02T05:00:00;49.05;42.11;22.79
82823;PMS5003;72575;46.834;-71.234;2024-03-02T05:02:25;41.45;36.82;22.36
82823;PMS5003;72575;46.834;-71.234;2024-03-02T05:04:52;52.95;44.65;25.05
82823;PMS5003;72575;46.834;-71.234;2024-03-02T05:07:18;52.67;46.06;24.11
82823;PMS5003;72575;46.834;-71.234;2024-03-02T05:09:42;41;37.57;21.14
82823;PMS5003;72575;46.834;-71.234;2024-03-02T05:12:09;49.95;45;27
82823;PMS5003;72575;46.834;-71.234;2024-03-02T05:14:33;66.72;53;28.78
82823;PMS5003;72575;46.834;-71.234;2024-03-02T05:16:58;47.56;43;22.06
82823;PMS5003;72575;46.834;-71.234;2024-03-02T05:19:24;45.86;43.23;23.18
82823;PMS5003;72575;46.834;-71.234;2024-03-02T05:21:50;42.39;41.11;22.28
82823;PMS5003;72575;46.834;-71.234;2024-03-02T05:24:14;51.32;43.47;22.26
82823;PMS5003;72575;46.834;-71.234;2024-03-02T05:26:40;49.24;42.95;22.48
82823;PMS5003;72575;46.834;-71.234;2024-03-02T05:29:07;37.48;36.86;23.29
82823;PMS5003;72575;46.834;-71.234;2024-03-02T05:31:31;54.53;46.05;24.47
82823;PMS5003;72575;46.834;-71.234;2024-03-02T05:33:58;39.71;37.05;21.24
82823;PMS5003;72575;46.834;-71.234;2024-03-02T05:36:24;44.5;43.05;23.7
82823;PMS5003;72575;46.834;-71.234;2024-03-02T05:38:47;50.14;37.29;20.14
82823;PMS5003;72575;46.834;-71.234;2024-03-02T05:41:12;50.95;45.11;23.16
82823;PMS5003;72575;46.834;-71.234;2024-03-02T05:43:38;44.1;40.65;22.3
82823;PMS5003;72575;46.834;-71.234;2024-03-02T05:46:05;50.79;45.95;23.79
82823;PMS5003;72575;46.834;-71.234;2024-03-02T05:48:29;45.62;42.57;23
82823;PMS5003;72575;46.834;-71.234;2024-03-02T05:50:57;53.11;44.83;22
82823;PMS5003;72575;46.834;-71.234;2024-03-02T05:53:23;50.1;43.45;22.25
82823;PMS5003;72575;46.834;-71.234;2024-03-02T05:55:51;51.71;45.62;24.43
82823;PMS5003;72575;46.834;-71.234;2024-03-02T05:58:14;55.15;46.4;23.85
82823;PMS5003;72575;46.834;-71.234;2024-03-02T06:00:40;41.48;37;19.86
82823;PMS5003;72575;46.834;-71.234;2024-03-02T06:03:04;37.43;34.81;20.43
82823;PMS5003;72575;46.834;-71.234;2024-03-02T06:05:32;57.11;48.11;25.05
82823;PMS5003;72575;46.834;-71.234;2024-03-02T06:07:55;53.94;46.44;23.5
82823;PMS5003;72575;46.834;-71.234;2024-03-02T06:10:22;42.64;39.55;20.77
82823;PMS5003;72575;46.834;-71.234;2024-03-02T06:12:48;38.57;35.57;22.14
82823;PMS5003;72575;46.834;-71.234;2024-03-02T06:15:14;38;35.76;23.1
82823;PMS5003;72575;46.834;-71.234;2024-03-02T06:17:38;48.84;41.79;21.63
82823;PMS5003;72575;46.834;-71.234;2024-03-02T06:20:05;42.5;37.2;20.65
82823;PMS5003;72575;46.834;-71.234;2024-03-02T06:22:28;45.86;40.76;22.24
82823;PMS5003;72575;46.834;-71.234;2024-03-02T06:24:54;49.89;41.26;20.74
82823;PMS5003;72575;46.834;-71.234;2024-03-02T06:27:22;47.37;45.21;21.32
82823;PMS5003;72575;46.834;-71.234;2024-03-02T06:29:48;41.68;37.47;21
82823;PMS5003;72575;46.834;-71.234;2024-03-02T06:32:12;45.33;41.89;22.61
82823;PMS5003;72575;46.834;-71.234;2024-03-02T06:34:37;40.9;35.76;22.1
82823;PMS5003;72575;46.834;-71.234;2024-03-02T06:37:02;44.19;40.05;20.48
82823;PMS5003;72575;46.834;-71.234;2024-03-02T06:39:25;41.05;37;21.33
82823;PMS5003;72575;46.834;-71.234;2024-03-02T06:41:52;50.56;45.89;23.83
82823;PMS5003;72575;46.834;-71.234;2024-03-02T06:44:21;66.81;54.9;31.67
82823;PMS5003;72575;46.834;-71.234;2024-03-02T06:46:44;49.71;46.43;28.14
82823;PMS5003;72575;46.834;-71.234;2024-03-02T06:49:08;52.38;47.9;29
82823;PMS5003;72575;46.834;-71.234;2024-03-02T06:51:34;45.14;37.14;22.19
82823;PMS5003;72575;46.834;-71.234;2024-03-02T06:54:01;47.78;41.89;20.5
82823;PMS5003;72575;46.834;-71.234;2024-03-02T06:56:24;44.43;37.86;22.19
82823;PMS5003;72575;46.834;-71.234;2024-03-02T06:58:50;45.78;44.17;24.06
82823;PMS5003;72575;46.834;-71.234;2024-03-02T07:01:17;43.82;39.73;23.09
82823;PMS5003;72575;46.834;-71.234;2024-03-02T07:03:43;43.95;40.95;21.2
82823;PMS5003;72575;46.834;-71.234;2024-03-02T07:06:07;43.2;39.15;21.9
82823;PMS5003;72575;46.834;-71.234;2024-03-02T07:08:32;43.62;37.29;24
82823;PMS5003;72575;46.834;-71.234;2024-03-02T07:10:58;41.15;36.7;20.95
82823;PMS5003;72575;46.834;-71.234;2024-03-02T07:13:22;43.86;41.38;21.1
82823;PMS5003;72575;46.834;-71.234;2024-03-02T07:16:13;32.57;31.1;17.57
82823;PMS5003;72575;46.834;-71.234;2024-03-02T07:18:14;34.23;32.05;21
82823;PMS5003;72575;46.834;-71.234;2024-03-02T07:20:39;35.33;32;16.86
82823;PMS5003;72575;46.834;-71.234;2024-03-02T07:23:04;43.86;37.33;20.76
82823;PMS5003;72575;46.834;-71.234;2024-03-02T07:25:31;44.11;43.21;23.68
82823;PMS5003;72575;46.834;-71.234;2024-03-02T07:27:56;43;39.1;20.2
82823;PMS5003;72575;46.834;-71.234;2024-03-02T07:30:22;35.52;32.52;18.19
82823;PMS5003;72575;46.834;-71.234;2024-03-02T07:32:46;37.1;33.71;21.62
82823;PMS5003;72575;46.834;-71.234;2024-03-02T07:35:12;42.29;35.14;18.52
82823;PMS5003;72575;46.834;-71.234;2024-03-02T07:37:38;43.44;41.89;21.89
82823;PMS5003;72575;46.834;-71.234;2024-03-02T07:40:03;40.57;38.24;19.52
82823;PMS5003;72575;46.834;-71.234;2024-03-02T07:42:27;34.33;31.57;19.24
82823;PMS5003;72575;46.834;-71.234;2024-03-02T07:44:53;41.47;38.47;20.79
82823;PMS5003;72575;46.834;-71.234;2024-03-02T07:47:19;43.15;39.25;22
82823;PMS5003;72575;46.834;-71.234;2024-03-02T07:49:44;46.78;43.67;21.33
82823;PMS5003;72575;46.834;-71.234;2024-03-02T07:52:11;53.42;46.68;22.79
82823;PMS5003;72575;46.834;-71.234;2024-03-02T07:54:36;41.81;38.71;21.48
82823;PMS5003;72575;46.834;-71.234;2024-03-02T07:57:02;46.32;40.84;20.47
82823;PMS5003;72575;46.834;-71.234;2024-03-02T07:59:26;37.2;34.25;20.65
82823;PMS5003;72575;46.834;-71.234;2024-03-02T08:01:51;48.05;39.95;21.4
82823;PMS5003;72575;46.834;-71.234;2024-03-02T08:04:17;48.62;39.57;22.76
82823;PMS5003;72575;46.834;-71.234;2024-03-02T08:06:41;46.39;41.94;20.61
82823;PMS5003;72575;46.834;-71.234;2024-03-02T08:09:10;40.68;35.59;19
82823;PMS5003;72575;46.834;-71.234;2024-03-02T08:11:34;39.24;34;20.9
82823;PMS5003;72575;46.834;-71.234;2024-03-02T08:13:58;47.65;42.25;20.7
82823;PMS5003;72575;46.834;-71.234;2024-03-02T08:16:25;42.14;35.57;19.76
82823;PMS5003;72575;46.834;-71.234;2024-03-02T08:18:50;49.16;40.58;20
82823;PMS5003;72575;46.834;-71.234;2024-03-02T08:21:14;38.45;35.5;19.1
82823;PMS5003;72575;46.834;-71.234;2024-03-02T08:23:41;50.76;39.95;19.1
82823;PMS5003;72575;46.834;-71.234;2024-03-02T08:26:06;40;35.05;21.82
82823;PMS5003;72575;46.834;-71.234;2024-03-02T08:28:30;42.9;35.33;23.24
82823;PMS5003;72575;46.834;-71.234;2024-03-02T08:30:57;51.65;47.1;24.3
82823;PMS5003;72575;46.834;-71.234;2024-03-02T08:33:22;52.55;46.7;25.8
82823;PMS5003;72575;46.834;-71.234;2024-03-02T08:35:46;55.43;48.48;27.76
82823;PMS5003;72575;46.834;-71.234;2024-03-02T08:38:13;95.65;71.6;37
82823;PMS5003;72575;46.834;-71.234;2024-03-02T08:40:37;78.6;58.85;32.65
82823;PMS5003;72575;46.834;-71.234;2024-03-02T08:43:03;91.36;69.73;39.45
82823;PMS5003;72575;46.834;-71.234;2024-03-02T08:45:29;81.35;63.5;36.15
82823;PMS5003;72575;46.834;-71.234;2024-03-02T08:47:56;73.1;59.7;32.55
82823;PMS5003;72575;46.834;-71.234;2024-03-02T08:50:18;60.6;49.7;28.95
82823;PMS5003;72575;46.834;-71.234;2024-03-02T08:52:44;58.5;49.2;25.85
82823;PMS5003;72575;46.834;-71.234;2024-03-02T08:55:11;54;47.65;24.85
82823;PMS5003;72575;46.834;-71.234;2024-03-02T08:57:36;61.2;49.65;26.55
82823;PMS5003;72575;46.834;-71.234;2024-03-02T09:00:04;54.43;47.48;26.14
82823;PMS5003;72575;46.834;-71.234;2024-03-02T09:30:35;51.43;44.14;24.52
82823;PMS5003;72575;46.834;-71.234;2024-03-02T09:31:04;65.95;52.19;28.14
82823;PMS5003;72575;46.834;-71.234;2024-03-02T09:31:39;60.29;50;27.38
82823;PMS5003;72575;46.834;-71.234;2024-03-02T09:31:59;60.47;48.74;26.42
82823;PMS5003;72575;46.834;-71.234;2024-03-02T09:32:14;59;48.9;25.14
82823;PMS5003;72575;46.834;-71.234;2024-03-02T09:32:27;55.29;47.86;25.71
82823;PMS5003;72575;46.834;-71.234;2024-03-02T09:32:44;54.76;47.24;26.33
82823;PMS5003;72575;46.834;-71.234;2024-03-02T09:32:57;45;38.95;22.32
82823;PMS5003;72575;46.834;-71.234;2024-03-02T09:33:15;45.14;39.41;21.18
82823;PMS5003;72575;46.834;-71.234;2024-03-02T09:35:31;56.23;48.18;25.95
82823;PMS5003;72575;46.834;-71.234;2024-03-02T09:37:57;49.86;43.62;23.48
82823;PMS5003;72575;46.834;-71.234;2024-03-02T09:40:23;51.67;43.95;25.95
82823;PMS5003;72575;46.834;-71.234;2024-03-02T09:42:47;54.65;47.8;24.55
82823;PMS5003;72575;46.834;-71.234;2024-03-02T09:45:11;53.43;47.24;25.29
82823;PMS5003;72575;46.834;-71.234;2024-03-02T09:47:40;54.3;47.75;26.7
82823;PMS5003;72575;46.834;-71.234;2024-03-02T09:50:04;48.62;43.14;23.62
82823;PMS5003;72575;46.834;-71.234;2024-03-02T09:52:29;48.14;44.67;21.57
82823;PMS5003;72575;46.834;-71.234;2024-03-02T09:54:54;45.15;43.05;22.75
82823;PMS5003;72575;46.834;-71.234;2024-03-02T09:57:22;57.6;49.25;27.5
82823;PMS5003;72575;46.834;-71.234;2024-03-02T09:59:45;52.26;46;24.11
82823;PMS5003;72575;46.834;-71.234;2024-03-02T10:02:12;42.76;38.24;21.29
82823;PMS5003;72575;46.834;-71.234;2024-03-02T10:04:38;50.84;45.05;24.74
82823;PMS5003;72575;46.834;-71.234;2024-03-02T10:07:15;48.45;41.6;23.4
82823;PMS5003;72575;46.834;-71.234;2024-03-02T10:09:28;50.05;45;23.42
82823;PMS5003;72575;46.834;-71.234;2024-03-02T10:11:53;43.89;41.21;19.84
82823;PMS5003;72575;46.834;-71.234;2024-03-02T10:14:19;44.81;40.05;23.24
82823;PMS5003;72575;46.834;-71.234;2024-03-02T10:16:44;45.58;42.05;21.53
82823;PMS5003;72575;46.834;-71.234;2024-03-02T10:19:23;47.37;40.05;20.84
82823;PMS5003;72575;46.834;-71.234;2024-03-02T10:21:33;38.41;37.05;20.09
82823;PMS5003;72575;46.834;-71.234;2024-03-02T10:24:07;41.15;39.25;20.5
82823;PMS5003;72575;46.834;-71.234;2024-03-02T10:26:24;47.05;38.53;18.89
82823;PMS5003;72575;46.834;-71.234;2024-03-02T10:28:51;41.86;38.57;20.62
82823;PMS5003;72575;46.834;-71.234;2024-03-02T10:31:16;39.95;34;16.95
82823;PMS5003;72575;46.834;-71.234;2024-03-02T10:33:40;39.29;35.81;20.95
82823;PMS5003;72575;46.834;-71.234;2024-03-02T10:36:05;43;39.17;19.22
82823;PMS5003;72575;46.834;-71.234;2024-03-02T10:38:43;43;39.59;25.18
82823;PMS5003;72575;46.834;-71.234;2024-03-02T10:41:08;33.77;32.23;19.64
82823;PMS5003;72575;46.834;-71.234;2024-03-02T10:43:35;34.1;30.62;19.1
82823;PMS5003;72575;46.834;-71.234;2024-03-02T10:46:00;32.52;28.38;18.38
82823;PMS5003;72575;46.834;-71.234;2024-03-02T10:48:25;35.52;33.52;19
82823;PMS5003;72575;46.834;-71.234;2024-03-02T10:50:49;32.58;29.84;15.47
82823;PMS5003;72575;46.834;-71.234;2024-03-02T10:53:17;33.1;30.24;17.29
82823;PMS5003;72575;46.834;-71.234;2024-03-02T10:55:42;46.81;38.62;18.76
82823;PMS5003;72575;46.834;-71.234;2024-03-02T10:58:08;35.05;30.76;18
82823;PMS5003;72575;46.834;-71.234;2024-03-02T11:00:33;39.42;36.16;17.53
82823;PMS5003;72575;46.834;-71.234;2024-03-02T11:02:58;36.75;30.4;17.95
82823;PMS5003;72575;46.834;-71.234;2024-03-02T11:05:26;31.15;29.85;17.75
82823;PMS5003;72575;46.834;-71.234;2024-03-02T11:07:49;30.14;28.81;16.1
82823;PMS5003;72575;46.834;-71.234;2024-03-02T11:10:14;34.1;32.35;17.6
82823;PMS5003;72575;46.834;-71.234;2024-03-02T11:12:42;31.91;28.23;16.5
82823;PMS5003;72575;46.834;-71.234;2024-03-02T11:15:09;32.57;30.71;17.43
82823;PMS5003;72575;46.834;-71.234;2024-03-02T11:17:31;32.33;27;15.38
82823;PMS5003;72575;46.834;-71.234;2024-03-02T11:19:57;31.9;29.86;15.67
82823;PMS5003;72575;46.834;-71.234;2024-03-02T11:22:22;34.74;31;15.37
82823;PMS5003;72575;46.834;-71.234;2024-03-02T11:24:49;33.45;31.5;17.15
82823;PMS5003;72575;46.834;-71.234;2024-03-02T11:27:13;45.5;40.6;19.9
82823;PMS5003;72575;46.834;-71.234;2024-03-02T11:29:43;36.68;30.59;17.36
82823;PMS5003;72575;46.834;-71.234;2024-03-02T11:32:05;35.67;30.71;15.33
82823;PMS5003;72575;46.834;-71.234;2024-03-02T11:34:29;26.38;25.05;14.62
82823;PMS5003;72575;46.834;-71.234;2024-03-02T11:36:54;32.9;32.1;16.2
82823;PMS5003;72575;46.834;-71.234;2024-03-02T11:39:18;27.33;26;15.76
82823;PMS5003;72575;46.834;-71.234;2024-03-02T11:41:45;26.57;25.67;16.48
82823;PMS5003;72575;46.834;-71.234;2024-03-02T11:44:11;33.7;31.55;15.15
82823;PMS5003;72575;46.834;-71.234;2024-03-02T11:46:35;32.65;29.25;15.3
82823;PMS5003;72575;46.834;-71.234;2024-03-02T11:49:02;28.33;27.05;16.71
82823;PMS5003;72575;46.834;-71.234;2024-03-02T11:51:26;34.7;29.75;14.9
82823;PMS5003;72575;46.834;-71.234;2024-03-02T11:53:52;27.9;25.43;16.38
82823;PMS5003;72575;46.834;-71.234;2024-03-02T11:56:18;29.6;27.75;16.7
82823;PMS5003;72575;46.834;-71.234;2024-03-02T11:58:42;30.85;27.8;14.85
82823;PMS5003;72575;46.834;-71.234;2024-03-02T12:01:08;37.16;32.05;17.05
82823;PMS5003;72575;46.834;-71.234;2024-03-02T12:03:35;26.68;22.41;14.14
82823;PMS5003;72575;46.834;-71.234;2024-03-02T12:05:58;32.71;26.76;15.29
82823;PMS5003;72575;46.834;-71.234;2024-03-02T12:08:23;23.8;20.9;14
82823;PMS5003;72575;46.834;-71.234;2024-03-02T12:10:58;31.1;28.24;16.95
82823;PMS5003;72575;46.834;-71.234;2024-03-02T12:13:16;30.48;27.29;15.24
82823;PMS5003;72575;46.834;-71.234;2024-03-02T12:15:41;26.83;24.56;9.61
82823;PMS5003;72575;46.834;-71.234;2024-03-02T12:18:07;30.78;26.67;13.94
82823;PMS5003;72575;46.834;-71.234;2024-03-02T12:20:31;17.86;15.45;11.09
82823;PMS5003;72575;46.834;-71.234;2024-03-02T12:22:58;25.33;23.24;13.29
82823;PMS5003;72575;46.834;-71.234;2024-03-02T12:25:22;24.95;24.95;14.71
82823;PMS5003;72575;46.834;-71.234;2024-03-02T12:27:49;19.76;19;9.48
82823;PMS5003;72575;46.834;-71.234;2024-03-02T12:30:13;32.8;27.15;11.85
82823;PMS5003;72575;46.834;-71.234;2024-03-02T12:32:40;20.57;19.62;11.57
82823;PMS5003;72575;46.834;-71.234;2024-03-02T12:35:04;27.22;25.22;11.56
82823;PMS5003;72575;46.834;-71.234;2024-03-02T12:37:29;23.33;21.9;12.19
82823;PMS5003;72575;46.834;-71.234;2024-03-02T12:39:55;25.52;23.52;12.9
82823;PMS5003;72575;46.834;-71.234;2024-03-02T12:42:21;21.67;17.52;10.19
82823;PMS5003;72575;46.834;-71.234;2024-03-02T12:44:46;22.19;20.05;10.48
82823;PMS5003;72575;46.834;-71.234;2024-03-02T12:47:12;23.62;21.95;13.67
82823;PMS5003;72575;46.834;-71.234;2024-03-02T12:49:37;22.86;21.24;12.52
82823;PMS5003;72575;46.834;-71.234;2024-03-02T12:52:02;19.68;18.68;9.82
82823;PMS5003;72575;46.834;-71.234;2024-03-02T12:54:28;22.5;18.32;11.77
82823;PMS5003;72575;46.834;-71.234;2024-03-02T12:56:55;22.76;22.24;10.76
82823;PMS5003;72575;46.834;-71.234;2024-03-02T12:59:20;16.38;16.38;10.48
82823;PMS5003;72575;46.834;-71.234;2024-03-02T13:01:49;26.48;23.1;12.81
82823;PMS5003;72575;46.834;-71.234;2024-03-02T13:04:09;29.71;25.05;12
82823;PMS5003;72575;46.834;-71.234;2024-03-02T13:06:35;23;20.71;12
82823;PMS5003;72575;46.834;-71.234;2024-03-02T13:08:59;16.81;13.48;8.62
82823;PMS5003;72575;46.834;-71.234;2024-03-02T13:11:25;18.95;17.73;11.45
82823;PMS5003;72575;46.834;-71.234;2024-03-02T13:13:53;22.43;17.57;13.05
82823;PMS5003;72575;46.834;-71.234;2024-03-02T13:16:16;28.42;25.89;12.21
82823;PMS5003;72575;46.834;-71.234;2024-03-02T13:18:41;24.76;22.1;13.38
82823;PMS5003;72575;46.834;-71.234;2024-03-02T13:21:06;21.62;19.95;10.81
82823;PMS5003;72575;46.834;-71.234;2024-03-02T13:23:32;22.86;21.43;12.81
82823;PMS5003;72575;46.834;-71.234;2024-03-02T13:25:59;30.95;26;12.3
82823;PMS5003;72575;46.834;-71.234;2024-03-02T13:28:25;31.67;28.14;13.62
82823;PMS5003;72575;46.834;-71.234;2024-03-02T13:30:48;20.71;18.57;11
82823;PMS5003;72575;46.834;-71.234;2024-03-02T13:33:15;13.67;11.48;5.76
82823;PMS5003;72575;46.834;-71.234;2024-03-02T13:35:39;22.24;19.52;12.14